Aviation Digital Data Service (ADDS)

Output produced by METARs form (2225 UTC 23 March 2019)
found at http://www.aviationweather.gov/metar/data/
 
METAR text: UHSS 232200Z 35002MPS 9999 -SHSN SCT033CB M16/M18 Q1006 R01/810360 NOSIG RMK MT OBSC QFE753/1005
Conditions at: UHSS (JUZNO-SAHALINSK , RU) observed 2200 UTC 23 March 2019
Temperature: -16.0°C ( 3°F)
Dewpoint: -18.0°C (-0°F) [RH = 85%]
Pressure (altimeter): 29.70 inches Hg (1006.0 mb)
Winds: from the N (350 degrees) at 5 MPH (4 knots; 2.1 m/s)
Visibility: 6 or more miles (10+ km)
Ceiling: at least 12,000 feet AGL
Clouds: scattered clouds at 3300 feet AGL
Weather: -SHSN  (light snow showers)

METAR text: UHSS 232130Z 01002MPS 9999 -SHSN SCT032CB M16/M18 Q1006 R01/810360 NOSIG RMK MT OBSC QFE753/1005
Conditions at: UHSS (JUZNO-SAHALINSK , RU) observed 2130 UTC 23 March 2019
Temperature: -16.0°C ( 3°F)
Dewpoint: -18.0°C (-0°F) [RH = 85%]
Pressure (altimeter): 29.70 inches Hg (1006.0 mb)
Winds: from the N (10 degrees) at 5 MPH (4 knots; 2.1 m/s)
Visibility: 6 or more miles (10+ km)
Ceiling: at least 12,000 feet AGL
Clouds: scattered clouds at 3200 feet AGL
Weather: -SHSN  (light snow showers)

METAR text: UHSS 232100Z 36003MPS 9999 SCT032CB M17/M19 Q1006 R01/810360 NOSIG RMK MT OBSC QFE753/1005
Conditions at: UHSS (JUZNO-SAHALINSK , RU) observed 2100 UTC 23 March 2019
Temperature: -17.0°C ( 1°F)
Dewpoint: -19.0°C (-2°F) [RH = 84%]
Pressure (altimeter): 29.70 inches Hg (1006.0 mb)
Winds: from the N (360 degrees) at 7 MPH (6 knots; 3.1 m/s)
Visibility: 6 or more miles (10+ km)
Ceiling: at least 12,000 feet AGL
Clouds: scattered clouds at 3200 feet AGL
Weather: no significant weather observed at this time

METAR text: UHSS 232030Z 02002MPS 9999 BKN036 M21/M23 Q1006 R01/810360 NOSIG RMK QFE753/1004
Conditions at: UHSS (JUZNO-SAHALINSK , RU) observed 2030 UTC 23 March 2019
Temperature: -21.0°C (-6°F)
Dewpoint: -23.0°C (-9°F) [RH = 84%]
Pressure (altimeter): 29.70 inches Hg (1006.0 mb)
Winds: from the NNE (20 degrees) at 5 MPH (4 knots; 2.1 m/s)
Visibility: 6 or more miles (10+ km)
Ceiling: 3600 feet AGL
Clouds: broken clouds at 3600 feet AGL
Weather: no significant weather observed at this time

METAR text: UHSS 232000Z 00000MPS 9999 BKN036 M22/M24 Q1006 R01/810360 NOSIG RMK QFE753/1004
Conditions at: UHSS (JUZNO-SAHALINSK , RU) observed 2000 UTC 23 March 2019
Temperature: -22.0°C (-8°F)
Dewpoint: -24.0°C (-11°F) [RH = 84%]
Pressure (altimeter): 29.70 inches Hg (1006.0 mb)
Winds: calm
Visibility: 6 or more miles (10+ km)
Ceiling: 3600 feet AGL
Clouds: broken clouds at 3600 feet AGL
Weather: no significant weather observed at this time

METAR text: UHSS 231930Z 36002MPS 9999 NSC M20/M22 Q1006 R01/810360 NOSIG RMK QFE753/1005
Conditions at: UHSS (JUZNO-SAHALINSK , RU) observed 1930 UTC 23 March 2019
Temperature: -20.0°C (-4°F)
Dewpoint: -22.0°C (-8°F) [RH = 84%]
Pressure (altimeter): 29.70 inches Hg (1006.0 mb)
Winds: from the N (360 degrees) at 5 MPH (4 knots; 2.1 m/s)
Visibility: 6 or more miles (10+ km)
Ceiling: at least 12,000 feet AGL
Clouds: sky clear below 12,000 feet AGL
Weather: no significant weather observed at this time

METAR text: UHSS 231900Z 02002MPS 8000 NSC M21/M23 Q1006 R01/810360 NOSIG RMK QFE753/1004
Conditions at: UHSS (JUZNO-SAHALINSK , RU) observed 1900 UTC 23 March 2019
Temperature: -21.0°C (-6°F)
Dewpoint: -23.0°C (-9°F) [RH = 84%]
Pressure (altimeter): 29.70 inches Hg (1006.0 mb)
Winds: from the NNE (20 degrees) at 5 MPH (4 knots; 2.1 m/s)
Visibility: 5 miles ( 8 km)
Ceiling: at least 12,000 feet AGL
Clouds: sky clear below 12,000 feet AGL
Weather: no significant weather observed at this time

METAR text: UHSS 231800Z 36002MPS 9999 NSC M20/M22 Q1006 R01/810360 NOSIG RMK QFE753/1005
Conditions at: UHSS (JUZNO-SAHALINSK , RU) observed 1800 UTC 23 March 2019
Temperature: -20.0°C (-4°F)
Dewpoint: -22.0°C (-8°F) [RH = 84%]
Pressure (altimeter): 29.70 inches Hg (1006.0 mb)
Winds: from the N (360 degrees) at 5 MPH (4 knots; 2.1 m/s)
Visibility: 6 or more miles (10+ km)
Ceiling: at least 12,000 feet AGL
Clouds: sky clear below 12,000 feet AGL
Weather: no significant weather observed at this time

METAR text: UHSS 231700Z 03002MPS 9999 NSC M20/M22 Q1006 R01/810360 NOSIG RMK QFE754/1005
Conditions at: UHSS (JUZNO-SAHALINSK , RU) observed 1700 UTC 23 March 2019
Temperature: -20.0°C (-4°F)
Dewpoint: -22.0°C (-8°F) [RH = 84%]
Pressure (altimeter): 29.70 inches Hg (1006.0 mb)
Winds: from the NNE (30 degrees) at 5 MPH (4 knots; 2.1 m/s)
Visibility: 6 or more miles (10+ km)
Ceiling: at least 12,000 feet AGL
Clouds: sky clear below 12,000 feet AGL
Weather: no significant weather observed at this time

METAR text: UHSS 231600Z 01001MPS 9999 NSC M19/M20 Q1006 R01/810360 NOSIG RMK QFE754/1005
Conditions at: UHSS (JUZNO-SAHALINSK , RU) observed 1600 UTC 23 March 2019
Temperature: -19.0°C (-2°F)
Dewpoint: -20.0°C (-4°F) [RH = 92%]
Pressure (altimeter): 29.70 inches Hg (1006.0 mb)
Winds: from the N (10 degrees) at 2 MPH (2 knots; 1.0 m/s)
Visibility: 6 or more miles (10+ km)
Ceiling: at least 12,000 feet AGL
Clouds: sky clear below 12,000 feet AGL
Weather: no significant weather observed at this time

METAR text: UHSS 231500Z 04001MPS 9999 NSC M19/M20 Q1007 R01/810360 NOSIG RMK QFE754/1005
Conditions at: UHSS (JUZNO-SAHALINSK , RU) observed 1500 UTC 23 March 2019
Temperature: -19.0°C (-2°F)
Dewpoint: -20.0°C (-4°F) [RH = 92%]
Pressure (altimeter): 29.73 inches Hg (1007.0 mb)
Winds: from the NE (40 degrees) at 2 MPH (2 knots; 1.0 m/s)
Visibility: 6 or more miles (10+ km)
Ceiling: at least 12,000 feet AGL
Clouds: sky clear below 12,000 feet AGL
Weather: no significant weather observed at this time

METAR text: UHSS 231400Z 01002MPS 330V040 9999 NSC M15/M18 Q1007 R01/810360 NOSIG RMK QFE754/1006
Conditions at: UHSS (JUZNO-SAHALINSK , RU) observed 1400 UTC 23 March 2019
Temperature: -15.0°C ( 5°F)
Dewpoint: -18.0°C (-0°F) [RH = 78%]
Pressure (altimeter): 29.73 inches Hg (1007.0 mb)
Winds: from the N (10 degrees) at 5 MPH (4 knots; 2.1 m/s)
Visibility: 6 or more miles (10+ km)
Ceiling: at least 12,000 feet AGL
Clouds: sky clear below 12,000 feet AGL
Weather: no significant weather observed at this time

METAR text: UHSS 231300Z 08001MPS 9999 NSC M16/M18 Q1008 R01/810360 NOSIG RMK QFE755/1006
Conditions at: UHSS (JUZNO-SAHALINSK , RU) observed 1300 UTC 23 March 2019
Temperature: -16.0°C ( 3°F)
Dewpoint: -18.0°C (-0°F) [RH = 85%]
Pressure (altimeter): 29.76 inches Hg (1008.0 mb)
Winds: from the E (80 degrees) at 2 MPH (2 knots; 1.0 m/s)
Visibility: 6 or more miles (10+ km)
Ceiling: at least 12,000 feet AGL
Clouds: sky clear below 12,000 feet AGL
Weather: no significant weather observed at this time

METAR text: UHSS 231200Z 16001MPS 9999 NSC M15/M18 Q1008 R01/810360 NOSIG RMK QFE755/1007
Conditions at: UHSS (JUZNO-SAHALINSK , RU) observed 1200 UTC 23 March 2019
Temperature: -15.0°C ( 5°F)
Dewpoint: -18.0°C (-0°F) [RH = 78%]
Pressure (altimeter): 29.76 inches Hg (1008.0 mb)
Winds: from the SSE (160 degrees) at 2 MPH (2 knots; 1.0 m/s)
Visibility: 6 or more miles (10+ km)
Ceiling: at least 12,000 feet AGL
Clouds: sky clear below 12,000 feet AGL
Weather: no significant weather observed at this time

METAR text: UHSS 231130Z 12002MPS 100V220 9999 NSC M13/M17 Q1008 R19/810360 NOSIG RMK QFE755/1006
Conditions at: UHSS (JUZNO-SAHALINSK , RU) observed 1130 UTC 23 March 2019
Temperature: -13.0°C ( 9°F)
Dewpoint: -17.0°C ( 1°F) [RH = 72%]
Pressure (altimeter): 29.76 inches Hg (1008.0 mb)
Winds: from the ESE (120 degrees) at 5 MPH (4 knots; 2.1 m/s)
Visibility: 6 or more miles (10+ km)
Ceiling: at least 12,000 feet AGL
Clouds: sky clear below 12,000 feet AGL
Weather: no significant weather observed at this time

METAR text: UHSS 231100Z 10001MPS 9999 NSC M12/M17 Q1008 R19/810360 NOSIG RMK QFE755/1006
Conditions at: UHSS (JUZNO-SAHALINSK , RU) observed 1100 UTC 23 March 2019
Temperature: -12.0°C (10°F)
Dewpoint: -17.0°C ( 1°F) [RH = 66%]
Pressure (altimeter): 29.76 inches Hg (1008.0 mb)
Winds: from the E (100 degrees) at 2 MPH (2 knots; 1.0 m/s)
Visibility: 6 or more miles (10+ km)
Ceiling: at least 12,000 feet AGL
Clouds: sky clear below 12,000 feet AGL
Weather: no significant weather observed at this time

METAR text: UHSS 231030Z 30002MPS 9999 NSC M09/M16 Q1008 R19/810360 NOSIG RMK QFE754/1006
Conditions at: UHSS (JUZNO-SAHALINSK , RU) observed 1030 UTC 23 March 2019
Temperature: -9.0°C (16°F)
Dewpoint: -16.0°C ( 3°F) [RH = 57%]
Pressure (altimeter): 29.76 inches Hg (1008.0 mb)
Winds: from the WNW (300 degrees) at 5 MPH (4 knots; 2.1 m/s)
Visibility: 6 or more miles (10+ km)
Ceiling: at least 12,000 feet AGL
Clouds: sky clear below 12,000 feet AGL
Weather: no significant weather observed at this time

METAR text: UHSS 231000Z 30004MPS 9999 NSC M08/M15 Q1007 R01/810360 NOSIG RMK QFE754/1006
Conditions at: UHSS (JUZNO-SAHALINSK , RU) observed 1000 UTC 23 March 2019
Temperature: -8.0°C (18°F)
Dewpoint: -15.0°C ( 5°F) [RH = 57%]
Pressure (altimeter): 29.73 inches Hg (1007.0 mb)
Winds: from the WNW (300 degrees) at 9 MPH (8 knots; 4.1 m/s)
Visibility: 6 or more miles (10+ km)
Ceiling: at least 12,000 feet AGL
Clouds: sky clear below 12,000 feet AGL
Weather: no significant weather observed at this time

METAR text: UHSS 230930Z 29003MPS 9999 NSC M08/M16 Q1007 R01/810360 NOSIG RMK QFE754/1006
Conditions at: UHSS (JUZNO-SAHALINSK , RU) observed 0930 UTC 23 March 2019
Temperature: -8.0°C (18°F)
Dewpoint: -16.0°C ( 3°F) [RH = 53%]
Pressure (altimeter): 29.73 inches Hg (1007.0 mb)
Winds: from the WNW (290 degrees) at 7 MPH (6 knots; 3.1 m/s)
Visibility: 6 or more miles (10+ km)
Ceiling: at least 12,000 feet AGL
Clouds: sky clear below 12,000 feet AGL
Weather: no significant weather observed at this time

METAR text: UHSS 230900Z 31002MPS 9999 NSC M07/M16 Q1007 R01/810360 NOSIG RMK QFE754/1006
Conditions at: UHSS (JUZNO-SAHALINSK , RU) observed 0900 UTC 23 March 2019
Temperature: -7.0°C (19°F)
Dewpoint: -16.0°C ( 3°F) [RH = 49%]
Pressure (altimeter): 29.73 inches Hg (1007.0 mb)
Winds: from the NW (310 degrees) at 5 MPH (4 knots; 2.1 m/s)
Visibility: 6 or more miles (10+ km)
Ceiling: at least 12,000 feet AGL
Clouds: sky clear below 12,000 feet AGL
Weather: no significant weather observed at this time

METAR text: UHSS 230830Z 32004MPS 9999 NSC M07/M16 Q1007 R01/810360 NOSIG RMK QFE754/1005
Conditions at: UHSS (JUZNO-SAHALINSK , RU) observed 0830 UTC 23 March 2019
Temperature: -7.0°C (19°F)
Dewpoint: -16.0°C ( 3°F) [RH = 49%]
Pressure (altimeter): 29.73 inches Hg (1007.0 mb)
Winds: from the NW (320 degrees) at 9 MPH (8 knots; 4.1 m/s)
Visibility: 6 or more miles (10+ km)
Ceiling: at least 12,000 feet AGL
Clouds: sky clear below 12,000 feet AGL
Weather: no significant weather observed at this time

METAR text: UHSS 230800Z 30005MPS 9999 FEW040 M06/M15 Q1007 R01/810360 NOSIG RMK QFE754/1005
Conditions at: UHSS (JUZNO-SAHALINSK , RU) observed 0800 UTC 23 March 2019
Temperature: -6.0°C (21°F)
Dewpoint: -15.0°C ( 5°F) [RH = 49%]
Pressure (altimeter): 29.73 inches Hg (1007.0 mb)
Winds: from the WNW (300 degrees) at 12 MPH (10 knots; 5.1 m/s)
Visibility: 6 or more miles (10+ km)
Ceiling: at least 12,000 feet AGL
Clouds: few clouds at 4000 feet AGL
Weather: no significant weather observed at this time

METAR text: UHSS 230730Z 30006MPS 9999 FEW040 M06/M15 Q1006 R01/810360 NOSIG RMK QFE754/1005
Conditions at: UHSS (JUZNO-SAHALINSK , RU) observed 0730 UTC 23 March 2019
Temperature: -6.0°C (21°F)
Dewpoint: -15.0°C ( 5°F) [RH = 49%]
Pressure (altimeter): 29.70 inches Hg (1006.0 mb)
Winds: from the WNW (300 degrees) at 14 MPH (12 knots; 6.2 m/s)
Visibility: 6 or more miles (10+ km)
Ceiling: at least 12,000 feet AGL
Clouds: few clouds at 4000 feet AGL
Weather: no significant weather observed at this time

METAR text: UHSS 230700Z 29007MPS 9999 FEW040 M05/M15 Q1006 R01/810360 NOSIG RMK QFE753/1005
Conditions at: UHSS (JUZNO-SAHALINSK , RU) observed 0700 UTC 23 March 2019
Temperature: -5.0°C (23°F)
Dewpoint: -15.0°C ( 5°F) [RH = 45%]
Pressure (altimeter): 29.70 inches Hg (1006.0 mb)
Winds: from the WNW (290 degrees) at 16 MPH (14 knots; 7.2 m/s)
Visibility: 6 or more miles (10+ km)
Ceiling: at least 12,000 feet AGL
Clouds: few clouds at 4000 feet AGL
Weather: no significant weather observed at this time

METAR text: UHSS 230630Z 30007MPS 9999 FEW048 M05/M15 Q1006 R01/810360 NOSIG RMK QFE753/1005
Conditions at: UHSS (JUZNO-SAHALINSK , RU) observed 0630 UTC 23 March 2019
Temperature: -5.0°C (23°F)
Dewpoint: -15.0°C ( 5°F) [RH = 45%]
Pressure (altimeter): 29.70 inches Hg (1006.0 mb)
Winds: from the WNW (300 degrees) at 16 MPH (14 knots; 7.2 m/s)
Visibility: 6 or more miles (10+ km)
Ceiling: at least 12,000 feet AGL
Clouds: few clouds at 4800 feet AGL
Weather: no significant weather observed at this time

METAR text: UHSS 230600Z 29007MPS 9999 FEW048 M05/M16 Q1006 R01/810360 NOSIG RMK QFE753/1005
Conditions at: UHSS (JUZNO-SAHALINSK , RU) observed 0600 UTC 23 March 2019
Temperature: -5.0°C (23°F)
Dewpoint: -16.0°C ( 3°F) [RH = 42%]
Pressure (altimeter): 29.70 inches Hg (1006.0 mb)
Winds: from the WNW (290 degrees) at 16 MPH (14 knots; 7.2 m/s)
Visibility: 6 or more miles (10+ km)
Ceiling: at least 12,000 feet AGL
Clouds: few clouds at 4800 feet AGL
Weather: no significant weather observed at this time

METAR text: UHSS 230530Z 28006MPS 9999 BKN048 M04/M14 Q1006 R01/810360 NOSIG RMK QFE753/1005
Conditions at: UHSS (JUZNO-SAHALINSK , RU) observed 0530 UTC 23 March 2019
Temperature: -4.0°C (25°F)
Dewpoint: -14.0°C ( 7°F) [RH = 46%]
Pressure (altimeter): 29.70 inches Hg (1006.0 mb)
Winds: from the W (280 degrees) at 14 MPH (12 knots; 6.2 m/s)
Visibility: 6 or more miles (10+ km)
Ceiling: 4800 feet AGL
Clouds: broken clouds at 4800 feet AGL
Weather: no significant weather observed at this time

METAR text: UHSS 230500Z 31006MPS 9999 BKN049 M05/M15 Q1006 R01/810360 NOSIG RMK QFE753/1005
Conditions at: UHSS (JUZNO-SAHALINSK , RU) observed 0500 UTC 23 March 2019
Temperature: -5.0°C (23°F)
Dewpoint: -15.0°C ( 5°F) [RH = 45%]
Pressure (altimeter): 29.70 inches Hg (1006.0 mb)
Winds: from the NW (310 degrees) at 14 MPH (12 knots; 6.2 m/s)
Visibility: 6 or more miles (10+ km)
Ceiling: 4900 feet AGL
Clouds: broken clouds at 4900 feet AGL
Weather: no significant weather observed at this time

METAR text: UHSS 230430Z 31005MPS 9999 BKN049 M05/M14 Q1006 R01/810360 NOSIG RMK QFE753/1005
Conditions at: UHSS (JUZNO-SAHALINSK , RU) observed 0430 UTC 23 March 2019
Temperature: -5.0°C (23°F)
Dewpoint: -14.0°C ( 7°F) [RH = 49%]
Pressure (altimeter): 29.70 inches Hg (1006.0 mb)
Winds: from the NW (310 degrees) at 12 MPH (10 knots; 5.1 m/s)
Visibility: 6 or more miles (10+ km)
Ceiling: 4900 feet AGL
Clouds: broken clouds at 4900 feet AGL
Weather: no significant weather observed at this time

METAR text: UHSS 230400Z 30006MPS 9999 BKN049 M05/M14 Q1006 R01/810360 NOSIG RMK QFE753/1004
Conditions at: UHSS (JUZNO-SAHALINSK , RU) observed 0400 UTC 23 March 2019
Temperature: -5.0°C (23°F)
Dewpoint: -14.0°C ( 7°F) [RH = 49%]
Pressure (altimeter): 29.70 inches Hg (1006.0 mb)
Winds: from the WNW (300 degrees) at 14 MPH (12 knots; 6.2 m/s)
Visibility: 6 or more miles (10+ km)
Ceiling: 4900 feet AGL
Clouds: broken clouds at 4900 feet AGL
Weather: no significant weather observed at this time

METAR text: UHSS 230330Z 29006MPS 9999 BKN045 M05/M14 Q1006 R01/810360 NOSIG RMK QFE753/1005
Conditions at: UHSS (JUZNO-SAHALINSK , RU) observed 0330 UTC 23 March 2019
Temperature: -5.0°C (23°F)
Dewpoint: -14.0°C ( 7°F) [RH = 49%]
Pressure (altimeter): 29.70 inches Hg (1006.0 mb)
Winds: from the WNW (290 degrees) at 14 MPH (12 knots; 6.2 m/s)
Visibility: 6 or more miles (10+ km)
Ceiling: 4500 feet AGL
Clouds: broken clouds at 4500 feet AGL
Weather: no significant weather observed at this time

METAR text: UHSS 230300Z 01004MPS 9999 BKN048 M05/M13 Q1006 R01/420555 NOSIG RMK QFE754/1005
Conditions at: UHSS (JUZNO-SAHALINSK , RU) observed 0300 UTC 23 March 2019
Temperature: -5.0°C (23°F)
Dewpoint: -13.0°C ( 9°F) [RH = 53%]
Pressure (altimeter): 29.70 inches Hg (1006.0 mb)
Winds: from the N (10 degrees) at 9 MPH (8 knots; 4.1 m/s)
Visibility: 6 or more miles (10+ km)
Ceiling: 4800 feet AGL
Clouds: broken clouds at 4800 feet AGL
Weather: no significant weather observed at this time

METAR text: UHSS 230230Z 36003MPS 9999 BKN043 M05/M13 Q1006 R01/420555 NOSIG RMK QFE754/1005
Conditions at: UHSS (JUZNO-SAHALINSK , RU) observed 0230 UTC 23 March 2019
Temperature: -5.0°C (23°F)
Dewpoint: -13.0°C ( 9°F) [RH = 53%]
Pressure (altimeter): 29.70 inches Hg (1006.0 mb)
Winds: from the N (360 degrees) at 7 MPH (6 knots; 3.1 m/s)
Visibility: 6 or more miles (10+ km)
Ceiling: 4300 feet AGL
Clouds: broken clouds at 4300 feet AGL
Weather: no significant weather observed at this time

METAR text: UHSS 230200Z 36006MPS 9999 BKN048 M06/M12 Q1007 R01/420555 NOSIG RMK QFE754/1005
Conditions at: UHSS (JUZNO-SAHALINSK , RU) observed 0200 UTC 23 March 2019
Temperature: -6.0°C (21°F)
Dewpoint: -12.0°C (10°F) [RH = 62%]
Pressure (altimeter): 29.73 inches Hg (1007.0 mb)
Winds: from the N (360 degrees) at 14 MPH (12 knots; 6.2 m/s)
Visibility: 6 or more miles (10+ km)
Ceiling: 4800 feet AGL
Clouds: broken clouds at 4800 feet AGL
Weather: no significant weather observed at this time

METAR text: UHSS 230130Z 30005MPS 9999 BKN044 M05/M13 Q1007 R01/420555 NOSIG RMK QFE754/1005
Conditions at: UHSS (JUZNO-SAHALINSK , RU) observed 0130 UTC 23 March 2019
Temperature: -5.0°C (23°F)
Dewpoint: -13.0°C ( 9°F) [RH = 53%]
Pressure (altimeter): 29.73 inches Hg (1007.0 mb)
Winds: from the WNW (300 degrees) at 12 MPH (10 knots; 5.1 m/s)
Visibility: 6 or more miles (10+ km)
Ceiling: 4400 feet AGL
Clouds: broken clouds at 4400 feet AGL
Weather: no significant weather observed at this time

METAR text: UHSS 230100Z 36004MPS 9999 SCT042 M06/M13 Q1007 R01/420555 NOSIG RMK QFE754/1005
Conditions at: UHSS (JUZNO-SAHALINSK , RU) observed 0100 UTC 23 March 2019
Temperature: -6.0°C (21°F)
Dewpoint: -13.0°C ( 9°F) [RH = 58%]
Pressure (altimeter): 29.73 inches Hg (1007.0 mb)
Winds: from the N (360 degrees) at 9 MPH (8 knots; 4.1 m/s)
Visibility: 6 or more miles (10+ km)
Ceiling: at least 12,000 feet AGL
Clouds: scattered clouds at 4200 feet AGL
Weather: no significant weather observed at this time

METAR text: UHSS 230030Z 36003MPS 9999 SCT046 M06/M12 Q1007 R01/420555 NOSIG RMK QFE754/1006
Conditions at: UHSS (JUZNO-SAHALINSK , RU) observed 0030 UTC 23 March 2019
Temperature: -6.0°C (21°F)
Dewpoint: -12.0°C (10°F) [RH = 62%]
Pressure (altimeter): 29.73 inches Hg (1007.0 mb)
Winds: from the N (360 degrees) at 7 MPH (6 knots; 3.1 m/s)
Visibility: 6 or more miles (10+ km)
Ceiling: at least 12,000 feet AGL
Clouds: scattered clouds at 4600 feet AGL
Weather: no significant weather observed at this time

METAR text: UHSS 230000Z 01003MPS 9999 NSC M07/M12 Q1007 R01/420555 NOSIG RMK QFE754/1006
Conditions at: UHSS (JUZNO-SAHALINSK , RU) observed 0000 UTC 23 March 2019
Temperature: -7.0°C (19°F)
Dewpoint: -12.0°C (10°F) [RH = 67%]
Pressure (altimeter): 29.73 inches Hg (1007.0 mb)
Winds: from the N (10 degrees) at 7 MPH (6 knots; 3.1 m/s)
Visibility: 6 or more miles (10+ km)
Ceiling: at least 12,000 feet AGL
Clouds: sky clear below 12,000 feet AGL
Weather: no significant weather observed at this time

METAR text: UHSS 222330Z 01004MPS 9999 NSC M09/M12 Q1007 R01/420555 NOSIG RMK QFE754/1006
Conditions at: UHSS (JUZNO-SAHALINSK , RU) observed 2330 UTC 22 March 2019
Temperature: -9.0°C (16°F)
Dewpoint: -12.0°C (10°F) [RH = 79%]
Pressure (altimeter): 29.73 inches Hg (1007.0 mb)
Winds: from the N (10 degrees) at 9 MPH (8 knots; 4.1 m/s)
Visibility: 6 or more miles (10+ km)
Ceiling: at least 12,000 feet AGL
Clouds: sky clear below 12,000 feet AGL
Weather: no significant weather observed at this time

METAR text: UHSS 222300Z 36002MPS 9999 SCT023 BKN028 M11/M13 Q1008 R01/420555 NOSIG RMK MT OBSC QFE755/1006
Conditions at: UHSS (JUZNO-SAHALINSK , RU) observed 2300 UTC 22 March 2019
Temperature: -11.0°C (12°F)
Dewpoint: -13.0°C ( 9°F) [RH = 85%]
Pressure (altimeter): 29.76 inches Hg (1008.0 mb)
Winds: from the N (360 degrees) at 5 MPH (4 knots; 2.1 m/s)
Visibility: 6 or more miles (10+ km)
Ceiling: 2800 feet AGL
Clouds: scattered clouds at 2300 feet AGL
broken clouds at 2800 feet AGL
Weather: no significant weather observed at this time

METAR text: UHSS 222230Z 01002MPS 6000 SCT024 M14/M15 Q1008 R01/420555 NOSIG RMK MT OBSC QFE755/1006
Conditions at: UHSS (JUZNO-SAHALINSK , RU) observed 2230 UTC 22 March 2019
Temperature: -14.0°C ( 7°F)
Dewpoint: -15.0°C ( 5°F) [RH = 92%]
Pressure (altimeter): 29.76 inches Hg (1008.0 mb)
Winds: from the N (10 degrees) at 5 MPH (4 knots; 2.1 m/s)
Visibility: 4 miles ( 6 km)
Ceiling: at least 12,000 feet AGL
Clouds: scattered clouds at 2400 feet AGL
Weather: no significant weather observed at this time

METAR text: UHSS 222200Z 35002MPS 5000 FU SCT033 M16/M17 Q1008 R01/420555 NOSIG RMK MT OBSC QFE755/1006
Conditions at: UHSS (JUZNO-SAHALINSK , RU) observed 2200 UTC 22 March 2019
Temperature: -16.0°C ( 3°F)
Dewpoint: -17.0°C ( 1°F) [RH = 92%]
Pressure (altimeter): 29.76 inches Hg (1008.0 mb)
Winds: from the N (350 degrees) at 5 MPH (4 knots; 2.1 m/s)
Visibility: 3 miles ( 5 km)
Ceiling: at least 12,000 feet AGL
Clouds: scattered clouds at 3300 feet AGL
Weather: FU  (smoke)

METAR text: UHSS 222130Z 36002MPS 6000 SCT033 M18/M20 Q1008 R01/420555 NOSIG RMK MT OBSC QFE755/1006
Conditions at: UHSS (JUZNO-SAHALINSK , RU) observed 2130 UTC 22 March 2019
Temperature: -18.0°C (-0°F)
Dewpoint: -20.0°C (-4°F) [RH = 84%]
Pressure (altimeter): 29.76 inches Hg (1008.0 mb)
Winds: from the N (360 degrees) at 5 MPH (4 knots; 2.1 m/s)
Visibility: 4 miles ( 6 km)
Ceiling: at least 12,000 feet AGL
Clouds: scattered clouds at 3300 feet AGL
Weather: no significant weather observed at this time

METAR text: UHSS 222100Z 00000MPS 9999 SCT033 M19/M21 Q1008 R01/420555 NOSIG RMK MT OBSC QFE755/1006
Conditions at: UHSS (JUZNO-SAHALINSK , RU) observed 2100 UTC 22 March 2019
Temperature: -19.0°C (-2°F)
Dewpoint: -21.0°C (-6°F) [RH = 84%]
Pressure (altimeter): 29.76 inches Hg (1008.0 mb)
Winds: calm
Visibility: 6 or more miles (10+ km)
Ceiling: at least 12,000 feet AGL
Clouds: scattered clouds at 3300 feet AGL
Weather: no significant weather observed at this time

METAR text: UHSS 222030Z 02001MPS 9999 SCT033 M19/M21 Q1008 R01/420555 NOSIG RMK MT OBSC QFE755/1006
Conditions at: UHSS (JUZNO-SAHALINSK , RU) observed 2030 UTC 22 March 2019
Temperature: -19.0°C (-2°F)
Dewpoint: -21.0°C (-6°F) [RH = 84%]
Pressure (altimeter): 29.76 inches Hg (1008.0 mb)
Winds: from the NNE (20 degrees) at 2 MPH (2 knots; 1.0 m/s)
Visibility: 6 or more miles (10+ km)
Ceiling: at least 12,000 feet AGL
Clouds: scattered clouds at 3300 feet AGL
Weather: no significant weather observed at this time

METAR text: UHSS 222000Z 15001MPS 9999 FEW033 M19/M21 Q1008 R01/421552 NOSIG RMK MT OBSC QFE755/1006
Conditions at: UHSS (JUZNO-SAHALINSK , RU) observed 2000 UTC 22 March 2019
Temperature: -19.0°C (-2°F)
Dewpoint: -21.0°C (-6°F) [RH = 84%]
Pressure (altimeter): 29.76 inches Hg (1008.0 mb)
Winds: from the SSE (150 degrees) at 2 MPH (2 knots; 1.0 m/s)
Visibility: 6 or more miles (10+ km)
Ceiling: at least 12,000 feet AGL
Clouds: few clouds at 3300 feet AGL
Weather: no significant weather observed at this time

METAR text: UHSS 221930Z 09001MPS 9999 SCT026CB M18/M20 Q1008 R01/421552 NOSIG RMK MT OBSC QFE755/1006
Conditions at: UHSS (JUZNO-SAHALINSK , RU) observed 1930 UTC 22 March 2019
Temperature: -18.0°C (-0°F)
Dewpoint: -20.0°C (-4°F) [RH = 84%]
Pressure (altimeter): 29.76 inches Hg (1008.0 mb)
Winds: from the E (90 degrees) at 2 MPH (2 knots; 1.0 m/s)
Visibility: 6 or more miles (10+ km)
Ceiling: at least 12,000 feet AGL
Clouds: scattered clouds at 2600 feet AGL
Weather: no significant weather observed at this time

METAR text: UHSS 221900Z 12001MPS 9999 SCT026CB M17/M18 Q1008 R01/421552 NOSIG RMK MT OBSC QFE755/1006
Conditions at: UHSS (JUZNO-SAHALINSK , RU) observed 1900 UTC 22 March 2019
Temperature: -17.0°C ( 1°F)
Dewpoint: -18.0°C (-0°F) [RH = 92%]
Pressure (altimeter): 29.76 inches Hg (1008.0 mb)
Winds: from the ESE (120 degrees) at 2 MPH (2 knots; 1.0 m/s)
Visibility: 6 or more miles (10+ km)
Ceiling: at least 12,000 feet AGL
Clouds: scattered clouds at 2600 feet AGL
Weather: no significant weather observed at this time

METAR text: UHSS 221800Z 00000MPS 9999 -SHSN BKN026CB M15/M16 Q1008 R01/421552 NOSIG RMK MT OBSC QFE755/1006
Conditions at: UHSS (JUZNO-SAHALINSK , RU) observed 1800 UTC 22 March 2019
Temperature: -15.0°C ( 5°F)
Dewpoint: -16.0°C ( 3°F) [RH = 92%]
Pressure (altimeter): 29.76 inches Hg (1008.0 mb)
Winds: calm
Visibility: 6 or more miles (10+ km)
Ceiling: 2600 feet AGL
Clouds: broken clouds at 2600 feet AGL
Weather: -SHSN  (light snow showers)

METAR text: UHSS 221700Z 31001MPS 9999 -SHSN SCT040CB M12/M13 Q1008 R01/421552 NOSIG RMK QFE755/1006
Conditions at: UHSS (JUZNO-SAHALINSK , RU) observed 1700 UTC 22 March 2019
Temperature: -12.0°C (10°F)
Dewpoint: -13.0°C ( 9°F) [RH = 92%]
Pressure (altimeter): 29.76 inches Hg (1008.0 mb)
Winds: from the NW (310 degrees) at 2 MPH (2 knots; 1.0 m/s)
Visibility: 6 or more miles (10+ km)
Ceiling: at least 12,000 feet AGL
Clouds: scattered clouds at 4000 feet AGL
Weather: -SHSN  (light snow showers)

METAR text: UHSS 221600Z 33001MPS 9999 -SHSN SCT040CB M11/M12 Q1008 R01/421552 NOSIG RMK QFE755/1007
Conditions at: UHSS (JUZNO-SAHALINSK , RU) observed 1600 UTC 22 March 2019
Temperature: -11.0°C (12°F)
Dewpoint: -12.0°C (10°F) [RH = 92%]
Pressure (altimeter): 29.76 inches Hg (1008.0 mb)
Winds: from the NNW (330 degrees) at 2 MPH (2 knots; 1.0 m/s)
Visibility: 6 or more miles (10+ km)
Ceiling: at least 12,000 feet AGL
Clouds: scattered clouds at 4000 feet AGL
Weather: -SHSN  (light snow showers)

METAR text: UHSS 221500Z 31002MPS 9000 -SHSN SCT040CB M10/M11 Q1008 R01/421552 NOSIG RMK QFE755/1007
Conditions at: UHSS (JUZNO-SAHALINSK , RU) observed 1500 UTC 22 March 2019
Temperature: -10.0°C (14°F)
Dewpoint: -11.0°C (12°F) [RH = 92%]
Pressure (altimeter): 29.76 inches Hg (1008.0 mb)
Winds: from the NW (310 degrees) at 5 MPH (4 knots; 2.1 m/s)
Visibility: 6 miles ( 9 km)
Ceiling: at least 12,000 feet AGL
Clouds: scattered clouds at 4000 feet AGL
Weather: -SHSN  (light snow showers)

METAR text: UHSS 221400Z 33002MPS 8000 -SHSN SCT040CB M10/M11 Q1008 R01/421552 NOSIG RMK QFE755/1007
Conditions at: UHSS (JUZNO-SAHALINSK , RU) observed 1400 UTC 22 March 2019
Temperature: -10.0°C (14°F)
Dewpoint: -11.0°C (12°F) [RH = 92%]
Pressure (altimeter): 29.76 inches Hg (1008.0 mb)
Winds: from the NNW (330 degrees) at 5 MPH (4 knots; 2.1 m/s)
Visibility: 5 miles ( 8 km)
Ceiling: at least 12,000 feet AGL
Clouds: scattered clouds at 4000 feet AGL
Weather: -SHSN  (light snow showers)

METAR text: UHSS 221300Z 33002MPS 6000 -SHSN SCT040CB M09/M10 Q1008 R01/421552 NOSIG RMK QFE755/1007
Conditions at: UHSS (JUZNO-SAHALINSK , RU) observed 1300 UTC 22 March 2019
Temperature: -9.0°C (16°F)
Dewpoint: -10.0°C (14°F) [RH = 92%]
Pressure (altimeter): 29.76 inches Hg (1008.0 mb)
Winds: from the NNW (330 degrees) at 5 MPH (4 knots; 2.1 m/s)
Visibility: 4 miles ( 6 km)
Ceiling: at least 12,000 feet AGL
Clouds: scattered clouds at 4000 feet AGL
Weather: -SHSN  (light snow showers)

METAR text: UHSS 221200Z 33004MPS 6000 -SHSN SCT040CB M09/M10 Q1008 R01/421552 NOSIG RMK QFE755/1007
Conditions at: UHSS (JUZNO-SAHALINSK , RU) observed 1200 UTC 22 March 2019
Temperature: -9.0°C (16°F)
Dewpoint: -10.0°C (14°F) [RH = 92%]
Pressure (altimeter): 29.76 inches Hg (1008.0 mb)
Winds: from the NNW (330 degrees) at 9 MPH (8 knots; 4.1 m/s)
Visibility: 4 miles ( 6 km)
Ceiling: at least 12,000 feet AGL
Clouds: scattered clouds at 4000 feet AGL
Weather: -SHSN  (light snow showers)

METAR text: UHSS 221130Z 33004MPS 5000 -SHSN SCT040CB M09/M10 Q1008 R01/421552 NOSIG RMK QFE755/1007
Conditions at: UHSS (JUZNO-SAHALINSK , RU) observed 1130 UTC 22 March 2019
Temperature: -9.0°C (16°F)
Dewpoint: -10.0°C (14°F) [RH = 92%]
Pressure (altimeter): 29.76 inches Hg (1008.0 mb)
Winds: from the NNW (330 degrees) at 9 MPH (8 knots; 4.1 m/s)
Visibility: 3 miles ( 5 km)
Ceiling: at least 12,000 feet AGL
Clouds: scattered clouds at 4000 feet AGL
Weather: -SHSN  (light snow showers)

METAR text: UHSS 221100Z 34005MPS 6000 -SHSN SCT040CB M09/M10 Q1008 R01/421552 NOSIG RMK QFE755/1006
Conditions at: UHSS (JUZNO-SAHALINSK , RU) observed 1100 UTC 22 March 2019
Temperature: -9.0°C (16°F)
Dewpoint: -10.0°C (14°F) [RH = 92%]
Pressure (altimeter): 29.76 inches Hg (1008.0 mb)
Winds: from the NNW (340 degrees) at 12 MPH (10 knots; 5.1 m/s)
Visibility: 4 miles ( 6 km)
Ceiling: at least 12,000 feet AGL
Clouds: scattered clouds at 4000 feet AGL
Weather: -SHSN  (light snow showers)

METAR text: UHSS 221030Z 34005MPS 9999 -SHSN SCT040CB M09/M11 Q1008 R01/421552 NOSIG RMK QFE754/1006
Conditions at: UHSS (JUZNO-SAHALINSK , RU) observed 1030 UTC 22 March 2019
Temperature: -9.0°C (16°F)
Dewpoint: -11.0°C (12°F) [RH = 85%]
Pressure (altimeter): 29.76 inches Hg (1008.0 mb)
Winds: from the NNW (340 degrees) at 12 MPH (10 knots; 5.1 m/s)
Visibility: 6 or more miles (10+ km)
Ceiling: at least 12,000 feet AGL
Clouds: scattered clouds at 4000 feet AGL
Weather: -SHSN  (light snow showers)

Forecast for: UHSS (JUZNO-SAHALINSK , RU)
Text: TAF UHSS 232000Z 2321/2503 08003MPS 9999 BKN030CB
Forecast period: 2100 UTC 23 March 2019 to 0300 UTC 25 March 2019
Forecast type: FROM: standard forecast or significant change
Winds: from the E (80 degrees) at 7 MPH (6 knots; 3.1 m/s)
Visibility: 6 or more miles 10+ km)
Ceiling: 3000 feet AGL
Clouds: broken clouds at 3000 feet AGL
Weather: no significant weather forecast for this period
Text: TEMPO 2321/2324 1400 SHSN BR BKN006 BKN020CB
Forecast period: 2100 UTC 23 March 2019 to 0000 UTC 24 March 2019
Forecast type: TEMPORARY: The following changes expected for less than half the time period
Visibility: 0.87 miles (1.40 km)
Ceiling: 600 feet AGL
Clouds: broken clouds at 600 feet AGL
broken clouds at 2000 feet AGL
Weather: SHSN BR  (snow showers, mist)